Time;durP1;ratioP1;P1;durP2;ratioP2;P2;SDS_P1;SDS_P2;PMS_P1;PMS_P2;Temp;Humidity;BMP_temperature;BMP_pressure;BME280_temperature;BME280_humidity;BME280_pressure;Samples;Min_cycle;Max_cycle;Signal;HPM_P1;HPM_P2
2022/05/18 00:01:32;;;;;;;9.10;3.30;;;;;;;2.15;79.09;101092.65;104861;1273;73251;-70
2022/05/18 00:04:20;;;;;;;10.00;3.10;;;;;;;2.09;79.29;101096.30;105031;1274;59469;-68
2022/05/18 00:07:08;;;;;;;8.60;2.60;;;;;;;2.07;79.86;101097.23;104812;1274;61225;-69
2022/05/18 00:09:56;;;;;;;12.00;2.80;;;;;;;2.06;80.22;101101.29;104861;1273;74039;-70
2022/05/18 00:12:50;;;;;;;8.20;2.30;;;;;;;2.07;80.31;101107.92;104809;1273;68642;-70
2022/05/18 00:15:39;;;;;;;9.40;3.00;;;;;;;2.10;80.99;101109.57;104710;1274;73432;-67
2022/05/18 00:18:27;;;;;;;10.60;2.70;;;;;;;2.13;80.96;101117.02;105124;1273;59347;-69
2022/05/18 00:21:16;;;;;;;8.10;2.50;;;;;;;2.17;81.09;101117.28;104868;1273;59294;-69
2022/05/18 00:24:05;;;;;;;9.90;2.80;;;;;;;2.19;80.80;101114.95;105060;1273;72927;-69
2022/05/18 00:26:53;;;;;;;8.00;2.20;;;;;;;2.20;80.92;101116.13;104995;1274;69158;-67
2022/05/18 00:29:40;;;;;;;9.00;2.40;;;;;;;2.19;80.66;101120.55;104785;1274;73548;-70
2022/05/18 00:32:28;;;;;;;8.60;2.30;;;;;;;2.16;80.42;101117.30;105015;1273;59380;-69
2022/05/18 00:35:18;;;;;;;7.50;2.30;;;;;;;2.13;80.32;101114.59;104833;1273;60502;-69
2022/05/18 00:38:08;;;;;;;7.70;2.60;;;;;;;2.10;80.59;101113.95;104262;1274;1003483;-68
2022/05/18 00:40:58;;;;;;;8.70;2.60;;;;;;;2.09;80.74;101111.36;104962;1273;69646;-69
2022/05/18 00:43:50;;;;;;;8.60;2.30;;;;;;;2.07;80.81;101113.33;104823;1273;74435;-70
2022/05/18 00:46:38;;;;;;;7.70;1.70;;;;;;;2.06;80.85;101117.56;104671;1274;59285;-69
2022/05/18 00:49:25;;;;;;;6.10;1.80;;;;;;;2.08;81.02;101122.77;104709;1274;60913;-69
2022/05/18 00:52:14;;;;;;;7.50;2.10;;;;;;;2.11;81.02;101122.70;104859;1274;72975;-68
2022/05/18 00:55:04;;;;;;;7.90;2.30;;;;;;;2.13;80.84;101126.67;104750;1274;66915;-69
2022/05/18 00:58:37;;;;;;;8.30;2.40;;;;;;;2.17;80.66;101131.12;104867;1273;73332;-69
2022/05/18 01:01:26;;;;;;;7.00;2.40;;;;;;;2.17;80.32;101132.87;104977;1274;59685;-69
2022/05/18 01:04:15;;;;;;;9.00;2.10;;;;;;;2.16;80.37;101133.05;104581;1273;60469;-69
2022/05/18 01:07:16;;;;;;;7.90;2.20;;;;;;;2.15;80.18;101139.05;104725;1273;73932;-70
2022/05/18 01:10:06;;;;;;;8.20;2.60;;;;;;;2.11;80.15;101142.31;104961;1274;69609;-68
2022/05/18 01:12:59;;;;;;;8.60;2.80;;;;;;;2.05;80.28;101141.55;104723;1274;73294;-69
2022/05/18 01:15:47;;;;;;;9.60;2.50;;;;;;;2.01;80.42;101147.79;104758;1274;59285;-68
2022/05/18 01:18:35;;;;;;;9.10;2.40;;;;;;;1.96;80.56;101150.19;104923;1273;61088;-69
2022/05/18 01:21:35;;;;;;;10.20;2.80;;;;;;;1.92;80.40;101157.30;105095;1273;72025;-68
2022/05/18 01:24:38;;;;;;;8.60;2.10;;;;;;;1.88;80.43;101157.58;104781;1273;68633;-69
2022/05/18 01:27:27;;;;;;;9.40;2.80;;;;;;;1.83;80.39;101159.79;104817;1274;73756;-70
2022/05/18 01:30:15;;;;;;;10.50;2.70;;;;;;;1.81;80.63;101158.42;104871;1274;59297;-69
2022/05/18 01:33:07;;;;;;;9.60;2.70;;;;;;;1.81;80.97;101157.73;104986;1273;59323;-69
2022/05/18 01:35:55;;;;;;;8.70;2.50;;;;;;;1.81;80.75;101161.05;105008;1273;73560;-68
2022/05/18 01:38:44;;;;;;;9.90;2.90;;;;;;;1.78;81.06;101160.06;104967;1274;68648;-69
2022/05/18 01:41:38;;;;;;;7.60;2.50;;;;;;;1.75;80.90;101162.42;104931;1273;72303;-69
2022/05/18 01:44:26;;;;;;;7.60;2.10;;;;;;;1.72;80.71;101161.09;104827;1274;59384;-67
2022/05/18 01:47:14;;;;;;;6.80;2.30;;;;;;;1.65;80.98;101166.67;104918;1273;61138;-69
2022/05/18 01:50:06;;;;;;;6.80;1.90;;;;;;;1.59;81.17;101174.34;104272;1274;1003248;-70
2022/05/18 01:52:54;;;;;;;8.60;2.30;;;;;;;1.51;81.24;101180.98;104775;1274;67467;-69
2022/05/18 01:55:42;;;;;;;7.40;2.50;;;;;;;1.46;81.82;101183.37;105027;1274;73558;-69
2022/05/18 01:58:30;;;;;;;6.80;2.10;;;;;;;1.44;81.85;101178.17;104781;1273;59384;-71
2022/05/18 02:01:20;;;;;;;8.50;2.50;;;;;;;1.42;81.96;101186.95;104879;1273;59461;-69
2022/05/18 02:04:08;;;;;;;9.60;2.30;;;;;;;1.39;81.90;101185.98;105140;1274;71842;-69
2022/05/18 02:06:56;;;;;;;8.00;2.40;;;;;;;1.38;81.96;101185.66;105241;1273;68608;-70
2022/05/18 02:09:46;;;;;;;9.20;2.70;;;;;;;1.40;82.45;101189.11;104893;1273;72654;-69
2022/05/18 02:12:34;;;;;;;8.00;2.50;;;;;;;1.42;82.22;101186.61;104881;1274;59230;-69
2022/05/18 02:15:26;;;;;;;7.50;2.10;;;;;;;1.41;82.15;101185.94;105047;1274;60410;-69
2022/05/18 02:18:14;;;;;;;7.90;2.30;;;;;;;1.41;82.32;101183.85;105213;1274;73186;-68
2022/05/18 02:21:10;;;;;;;8.10;2.40;;;;;;;1.39;82.25;101185.11;104962;1274;68567;-69
2022/05/18 02:23:58;;;;;;;6.60;2.00;;;;;;;1.37;82.44;101188.98;104756;1274;74712;-69
2022/05/18 02:26:48;;;;;;;7.20;2.50;;;;;;;1.35;82.54;101188.16;105055;1273;59457;-69
2022/05/18 02:29:39;;;;;;;7.80;2.00;;;;;;;1.34;82.79;101190.27;105178;1273;60222;-69
2022/05/18 02:32:27;;;;;;;7.00;2.20;;;;;;;1.32;82.73;101186.13;104863;1273;74228;-68
2022/05/18 02:35:16;;;;;;;7.50;2.50;;;;;;;1.33;82.92;101189.95;105098;1273;68529;-70
2022/05/18 02:38:04;;;;;;;8.10;2.40;;;;;;;1.34;82.85;101187.30;105007;1273;73271;-71
2022/05/18 02:40:58;;;;;;;7.60;2.10;;;;;;;1.36;82.97;101189.71;104929;1273;60491;-67
2022/05/18 02:43:47;;;;;;;7.40;2.10;;;;;;;1.40;83.16;101194.17;106052;1274;60680;-68
2022/05/18 02:46:34;;;;;;;6.50;1.90;;;;;;;1.47;83.44;101196.47;106262;1273;73000;-68
2022/05/18 02:49:24;;;;;;;7.70;2.10;;;;;;;1.56;83.21;101198.72;105958;1273;69080;-69
2022/05/18 02:52:12;;;;;;;7.80;1.90;;;;;;;1.62;82.98;101197.36;106336;1273;71843;-70
2022/05/18 02:58:08;;;;;;;7.90;1.80;;;;;;;1.72;82.86;101201.52;105228;1273;59287;-68
2022/05/18 03:00:56;;;;;;;7.40;2.50;;;;;;;1.75;82.52;101200.56;104156;1274;1002969;-66
2022/05/18 03:03:45;;;;;;;7.40;2.20;;;;;;;1.75;82.00;101192.89;105309;1273;68154;-70
2022/05/18 03:06:33;;;;;;;6.70;2.30;;;;;;;1.74;81.62;101192.54;104780;1273;71516;-66
2022/05/18 03:09:21;;;;;;;8.10;2.10;;;;;;;1.72;81.21;101196.98;105083;1273;59309;-70
2022/05/18 03:12:10;;;;;;;12.10;2.60;;;;;;;1.69;80.90;101195.45;105013;1274;59303;-72
2022/05/18 03:14:58;;;;;;;9.40;2.20;;;;;;;1.67;80.89;101201.29;104937;1273;73114;-70
2022/05/18 03:17:45;;;;;;;9.60;2.60;;;;;;;1.67;80.78;101199.52;104914;1274;67757;-67
2022/05/18 03:23:41;;;;;;;9.50;2.20;;;;;;;1.73;81.04;101189.23;104924;1273;60580;-69
2022/05/18 03:26:29;;;;;;;9.10;2.70;;;;;;;1.79;81.25;101195.93;105044;1273;59308;-69
2022/05/18 03:29:17;;;;;;;8.10;2.40;;;;;;;1.84;81.12;101201.41;104812;1273;73971;-69
2022/05/18 03:32:06;;;;;;;8.60;2.40;;;;;;;1.88;81.16;101208.48;106038;1272;66758;-68
2022/05/18 03:34:54;;;;;;;9.70;2.70;;;;;;;1.92;81.09;101208.24;104865;1273;74351;-68
2022/05/18 03:37:42;;;;;;;9.40;2.30;;;;;;;1.95;81.12;101208.17;105107;1273;59472;-67
2022/05/18 03:40:30;;;;;;;9.60;2.70;;;;;;;1.96;81.13;101207.61;104706;1274;59515;-68
2022/05/18 03:43:20;;;;;;;8.70;2.80;;;;;;;1.98;80.92;101207.74;104737;1273;73896;-68
2022/05/18 03:46:09;;;;;;;7.10;2.70;;;;;;;1.98;80.75;101211.93;104645;1274;68659;-67
2022/05/18 03:48:58;;;;;;;8.60;2.70;;;;;;;2.01;80.70;101214.84;104705;1273;70874;-68
2022/05/18 03:51:47;;;;;;;8.10;2.40;;;;;;;2.07;80.56;101219.43;104771;1273;59348;-70
2022/05/18 03:54:35;;;;;;;8.10;2.30;;;;;;;2.15;80.59;101230.25;104803;1273;59351;-69
2022/05/18 03:57:23;;;;;;;8.60;2.30;;;;;;;2.25;81.06;101233.71;105050;1273;72820;-71
2022/05/18 04:00:12;;;;;;;8.40;2.50;;;;;;;2.40;81.77;101236.50;104865;1274;69698;-71
2022/05/18 04:03:03;;;;;;;7.50;2.30;;;;;;;2.60;81.81;101236.84;104881;1273;74482;-69
2022/05/18 04:05:53;;;;;;;8.40;2.20;;;;;;;2.80;81.22;101236.69;104957;1273;59281;-69
2022/05/18 04:08:42;;;;;;;7.40;2.10;;;;;;;3.00;80.55;101240.51;104553;1273;60012;-71
2022/05/18 04:11:30;;;;;;;11.50;2.90;;;;;;;3.21;79.08;101252.58;104791;1273;72302;-70
2022/05/18 04:14:18;;;;;;;8.50;2.40;;;;;;;3.40;78.52;101254.16;104554;1274;69787;-68
2022/05/18 04:17:06;;;;;;;10.30;2.60;;;;;;;3.61;78.15;101246.17;104785;1273;74831;-67
2022/05/18 04:19:55;;;;;;;9.00;2.50;;;;;;;3.87;77.64;101245.20;105081;1273;59641;-68
2022/05/18 04:22:44;;;;;;;8.70;3.00;;;;;;;4.05;77.53;101249.20;104856;1273;62200;-67
2022/05/18 04:25:31;;;;;;;6.80;1.70;;;;;;;4.21;77.34;101249.77;104686;1273;71032;-68
2022/05/18 04:28:20;;;;;;;6.70;1.50;;;;;;;4.34;77.09;101256.21;105136;1273;67537;-69
2022/05/18 04:31:07;;;;;;;10.30;2.10;;;;;;;4.46;76.91;101255.63;104999;1273;73257;-69
2022/05/18 04:33:56;;;;;;;7.90;2.20;;;;;;;4.65;76.61;101257.10;104982;1273;59323;-68
2022/05/18 04:36:44;;;;;;;9.10;2.20;;;;;;;4.88;76.06;101265.45;104924;1273;61118;-70
2022/05/18 04:39:32;;;;;;;8.50;1.90;;;;;;;5.15;75.50;101270.15;105016;1273;73912;-69
2022/05/18 04:42:22;;;;;;;8.20;2.10;;;;;;;5.45;74.58;101272.23;104813;1273;67529;-70
2022/05/18 04:45:15;;;;;;;7.90;2.20;;;;;;;5.68;74.27;101275.75;104910;1274;72063;-70
2022/05/18 04:48:06;;;;;;;6.70;2.00;;;;;;;6.06;73.53;101276.59;104721;1274;59322;-65
2022/05/18 04:50:54;;;;;;;7.80;2.20;;;;;;;6.63;72.51;101275.72;104885;1274;60222;-67
2022/05/18 04:53:42;;;;;;;8.50;2.20;;;;;;;7.44;70.97;101276.45;105368;1273;73174;-68
2022/05/18 04:56:30;;;;;;;6.00;1.70;;;;;;;8.31;68.98;101273.63;104935;1273;66660;-70
2022/05/18 04:59:18;;;;;;;7.30;1.50;;;;;;;8.94;66.61;101270.48;104978;1273;72601;-70
2022/05/18 05:02:06;;;;;;;6.50;1.70;;;;;;;9.15;64.50;101267.27;105105;1273;59295;-70
2022/05/18 05:04:54;;;;;;;7.80;1.30;;;;;;;9.23;63.05;101270.61;104795;1273;61006;-70
2022/05/18 05:07:42;;;;;;;6.60;1.40;;;;;;;9.22;63.03;101280.39;104765;1273;74507;-69
2022/05/18 05:10:30;;;;;;;5.30;1.60;;;;;;;9.19;62.38;101276.60;105249;1273;68188;-70
2022/05/18 05:13:17;;;;;;;5.90;1.40;;;;;;;9.24;62.52;101280.83;104874;1273;73985;-70
2022/05/18 05:16:09;;;;;;;6.00;1.30;;;;;;;9.30;62.12;101277.84;104677;1273;59240;-69
2022/05/18 05:18:58;;;;;;;6.10;1.30;;;;;;;9.58;61.14;101280.27;104534;1276;60744;-67
2022/05/18 05:21:45;;;;;;;5.10;1.20;;;;;;;9.70;59.68;101282.77;104743;1273;73319;-69
2022/05/18 05:24:33;;;;;;;5.60;1.20;;;;;;;9.82;59.62;101281.59;104769;1273;67296;-69
2022/05/18 05:27:21;;;;;;;6.40;1.40;;;;;;;10.04;59.71;101281.80;104973;1273;73770;-69
2022/05/18 05:30:12;;;;;;;5.30;1.20;;;;;;;10.38;58.14;101282.38;104917;1274;60016;-68
2022/05/18 05:32:59;;;;;;;5.20;1.10;;;;;;;11.86;54.58;101277.21;104729;1274;60518;-68
2022/05/18 05:35:47;;;;;;;4.00;0.90;;;;;;;12.83;50.85;101272.14;104765;1273;74213;-67
2022/05/18 05:38:35;;;;;;;5.40;1.10;;;;;;;13.38;49.50;101270.87;104800;1273;68431;-66
2022/05/18 05:41:26;;;;;;;4.30;0.90;;;;;;;15.01;46.67;101273.38;104620;1273;73290;-68
2022/05/18 05:44:14;;;;;;;6.60;1.00;;;;;;;16.82;42.71;101265.43;104710;1274;59620;-68
2022/05/18 05:47:03;;;;;;;4.60;0.80;;;;;;;18.28;38.99;101263.56;104691;1274;59286;-68
2022/05/18 05:49:52;;;;;;;4.80;1.00;;;;;;;19.56;35.97;101257.02;104785;1274;73805;-68
2022/05/18 05:52:40;;;;;;;6.00;1.10;;;;;;;20.65;33.81;101249.70;104899;1273;69592;-68
2022/05/18 05:55:28;;;;;;;5.60;1.00;;;;;;;21.56;31.44;101255.20;104940;1273;74267;-67
2022/05/18 05:58:18;;;;;;;4.90;1.00;;;;;;;21.72;31.02;101253.27;105104;1274;59409;-68
2022/05/18 06:01:09;;;;;;;5.80;1.20;;;;;;;22.32;29.31;101250.86;107193;1273;60979;-67
2022/05/18 06:03:57;;;;;;;5.30;1.00;;;;;;;23.23;28.06;101249.67;106960;1273;72701;-69
2022/05/18 06:06:46;;;;;;;7.20;2.30;;;;;;;23.93;27.14;101248.93;107157;1273;68415;-70
2022/05/18 06:09:34;;;;;;;5.00;1.00;;;;;;;24.32;25.92;101239.00;107139;1273;71571;-66
2022/05/18 06:12:25;;;;;;;5.10;1.00;;;;;;;24.77;24.87;101235.18;105663;1273;59145;-68
2022/05/18 06:15:13;;;;;;;4.70;0.90;;;;;;;25.29;24.45;101236.59;104942;1273;59396;-70
2022/05/18 06:18:04;;;;;;;5.20;1.00;;;;;;;25.69;23.76;101238.52;104807;1273;73210;-65
2022/05/18 06:20:53;;;;;;;5.40;0.80;;;;;;;26.20;23.23;101237.55;104848;1273;66638;-73
2022/05/18 06:23:41;;;;;;;4.00;0.70;;;;;;;26.77;22.70;101235.94;104739;1273;74415;-70
2022/05/18 06:26:29;;;;;;;5.80;0.90;;;;;;;26.85;22.06;101239.10;104754;1273;59377;-67
2022/05/18 06:29:18;;;;;;;6.90;0.70;;;;;;;26.60;22.08;101244.61;104800;1274;62111;-73
2022/05/18 06:32:07;;;;;;;5.20;0.80;;;;;;;26.74;21.67;101241.64;105012;1273;72905;-67
2022/05/18 06:34:55;;;;;;;5.40;0.80;;;;;;;26.81;21.37;101242.16;104848;1273;68058;-72
2022/05/18 06:37:42;;;;;;;4.80;0.90;;;;;;;26.87;21.39;101245.61;104931;1273;74531;-70
2022/05/18 06:43:38;;;;;;;7.40;1.20;;;;;;;27.41;20.94;101252.07;104997;1273;60586;-70
2022/05/18 06:46:27;;;;;;;6.40;1.10;;;;;;;27.85;20.28;101252.48;104864;1273;71699;-70
2022/05/18 06:49:16;;;;;;;6.30;1.20;;;;;;;28.13;19.64;101249.46;104491;1276;68436;-68
2022/05/18 06:52:04;;;;;;;5.90;1.00;;;;;;;28.30;19.91;101256.35;104725;1273;73823;-68
2022/05/18 06:54:52;;;;;;;5.40;0.80;;;;;;;28.40;19.16;101252.58;104752;1271;59868;-68
2022/05/18 06:57:41;;;;;;;4.40;0.70;;;;;;;28.41;19.21;101251.39;105482;1273;59073;-67
2022/05/18 07:00:30;;;;;;;5.30;0.80;;;;;;;28.51;19.14;101254.40;104878;1273;73889;-66
2022/05/18 07:03:18;;;;;;;4.70;0.70;;;;;;;28.81;18.76;101252.92;104770;1273;68756;-67
2022/05/18 07:06:07;;;;;;;5.70;1.10;;;;;;;29.11;18.61;101247.13;104908;1274;72127;-66
2022/05/18 07:08:55;;;;;;;5.40;0.90;;;;;;;29.33;18.49;101247.36;104711;1273;59200;-67
2022/05/18 07:11:46;;;;;;;6.00;1.10;;;;;;;29.40;18.31;101243.72;104814;1273;60134;-66
2022/05/18 07:14:34;;;;;;;8.50;1.10;;;;;;;29.47;17.87;101239.09;104932;1274;72902;-67
2022/05/18 07:17:21;;;;;;;4.80;0.70;;;;;;;29.70;17.80;101244.27;104908;1273;68569;-68
2022/05/18 07:20:28;;;;;;;5.50;0.80;;;;;;;30.11;17.53;101244.30;104972;1273;74493;-68
2022/05/18 07:23:16;;;;;;;6.10;0.70;;;;;;;29.89;17.35;101250.02;104994;1273;59288;-68
2022/05/18 07:26:04;;;;;;;6.10;0.80;;;;;;;29.65;17.46;101248.64;104718;1273;59948;-71
2022/05/18 07:28:52;;;;;;;5.30;0.80;;;;;;;29.41;17.71;101245.20;105032;1273;72643;-67
2022/05/18 07:34:48;;;;;;;5.50;0.80;;;;;;;28.91;17.93;101247.88;104656;1273;73202;-69
2022/05/18 07:37:37;;;;;;;5.20;0.80;;;;;;;28.88;17.85;101249.74;104948;1274;59218;-66
2022/05/18 07:40:28;;;;;;;5.90;0.90;;;;;;;29.08;17.67;101244.79;104835;1273;61990;-67
2022/05/18 07:43:19;;;;;;;10.90;1.10;;;;;;;29.36;17.83;101244.44;104947;1274;74175;-66
2022/05/18 07:46:09;;;;;;;7.30;1.20;;;;;;;29.73;17.32;101245.57;104918;1273;68096;-66
2022/05/18 07:48:57;;;;;;;6.20;0.80;;;;;;;29.72;17.50;101245.36;104722;1273;73533;-69
2022/05/18 07:51:45;;;;;;;6.80;1.00;;;;;;;29.48;17.58;101246.73;104850;1273;59310;-67
2022/05/18 07:54:34;;;;;;;4.70;0.90;;;;;;;29.48;17.70;101245.23;104929;1273;60420;-66
2022/05/18 07:57:23;;;;;;;6.40;0.90;;;;;;;29.10;18.02;101242.67;105132;1273;71794;-66
2022/05/18 08:00:18;;;;;;;6.40;0.80;;;;;;;28.80;18.54;101240.27;104840;1274;68522;-66
2022/05/18 08:03:07;;;;;;;8.00;1.00;;;;;;;28.74;19.13;101238.05;104609;1274;72628;-70
2022/05/18 08:05:55;;;;;;;8.50;0.90;;;;;;;28.66;18.84;101236.65;105112;1273;59401;-67
2022/05/18 08:08:43;;;;;;;7.60;0.90;;;;;;;28.47;19.32;101242.06;104710;1273;60363;-69
2022/05/18 08:17:46;;;;;;;4.10;0.60;;;;;;;27.79;19.73;101245.14;105200;1273;73762;-71
2022/05/18 08:20:38;;;;;;;6.30;1.00;;;;;;;27.64;20.27;101243.22;104865;1273;59282;-70
2022/05/18 08:23:27;;;;;;;6.80;0.80;;;;;;;27.65;20.46;101242.39;104521;1273;61148;-69
2022/05/18 08:26:15;;;;;;;7.60;0.90;;;;;;;27.77;20.31;101243.10;104713;1273;74187;-68
2022/05/18 08:29:05;;;;;;;3.90;0.60;;;;;;;27.80;20.18;101241.13;105010;1273;68145;-70
2022/05/18 08:31:53;;;;;;;5.70;0.90;;;;;;;27.58;20.35;101240.17;104678;1273;73474;-68
2022/05/18 08:34:41;;;;;;;53.90;6.10;;;;;;;27.53;20.48;101233.59;104900;1273;59385;-70
2022/05/18 08:37:29;;;;;;;39.90;3.70;;;;;;;27.67;20.61;101235.66;104610;1274;61115;-68
2022/05/18 08:40:23;;;;;;;12.10;1.50;;;;;;;27.62;20.62;101232.52;104675;1273;73398;-68
2022/05/18 08:43:25;;;;;;;9.70;1.00;;;;;;;27.60;20.63;101229.54;104585;1273;68704;-68
2022/05/18 08:46:44;;;;;;;10.20;1.20;;;;;;;27.52;20.70;101230.84;104565;1274;72415;-68
2022/05/18 08:49:55;;;;;;;8.50;1.10;;;;;;;27.12;20.59;101228.46;104747;1273;59280;-69
2022/05/18 08:53:28;;;;;;;4.90;0.90;;;;;;;26.87;21.10;101222.48;105235;1273;61135;-70
2022/05/18 08:56:33;;;;;;;5.60;0.70;;;;;;;26.84;21.51;101222.66;105353;1273;72764;-69
2022/05/18 08:59:32;;;;;;;5.30;0.80;;;;;;;27.12;21.13;101225.80;104587;1273;65602;-69
2022/05/18 09:02:29;;;;;;;3.70;0.80;;;;;;;27.29;21.04;101219.88;104620;1274;74467;-67
2022/05/18 09:05:37;;;;;;;4.20;0.70;;;;;;;28.01;20.50;101218.27;104572;1273;59389;-68
2022/05/18 09:08:34;;;;;;;5.60;1.30;;;;;;;29.19;19.35;101210.63;104589;1273;59486;-67
2022/05/18 09:11:21;;;;;;;5.40;1.10;;;;;;;29.38;18.99;101207.70;104369;1273;543343;-67
2022/05/18 09:14:10;;;;;;;6.70;1.20;;;;;;;29.37;18.95;101206.45;105030;1273;68360;-69
2022/05/18 09:17:40;;;;;;;6.00;1.30;;;;;;;29.05;19.27;101202.27;105585;1273;73262;-65
2022/05/18 09:20:58;;;;;;;9.50;1.00;;;;;;;28.46;19.41;101209.42;106150;1273;59313;-64
2022/05/18 09:24:20;;;;;;;4.70;0.90;;;;;;;28.00;20.14;101212.14;105866;1273;62075;-66
2022/05/18 09:27:18;;;;;;;7.60;1.50;;;;;;;27.89;20.21;101212.89;105443;1274;74053;-67
2022/05/18 09:30:17;;;;;;;8.80;1.20;;;;;;;27.67;20.43;101208.02;104838;1273;69630;-65
2022/05/18 09:34:01;;;;;;;6.30;0.90;;;;;;;27.67;20.52;101204.88;104763;1274;73344;-68
2022/05/18 09:37:13;;;;;;;8.10;1.20;;;;;;;27.75;20.82;101204.73;104756;1273;59302;-68
2022/05/18 09:40:23;;;;;;;6.00;1.10;;;;;;;27.71;20.76;101199.88;105012;1273;60232;-66
2022/05/18 09:43:24;;;;;;;10.30;1.20;;;;;;;27.48;20.80;101199.92;104877;1277;71652;-68
2022/05/18 09:46:16;;;;;;;5.90;0.90;;;;;;;27.36;20.95;101201.13;104721;1273;67172;-67
2022/05/18 09:49:37;;;;;;;7.60;1.30;;;;;;;27.13;20.92;101201.58;104822;1273;73476;-67
2022/05/18 09:52:28;;;;;;;8.50;1.00;;;;;;;27.06;21.69;101196.75;104825;1273;59300;-67
2022/05/18 09:55:22;;;;;;;9.70;1.10;;;;;;;27.21;21.30;101194.10;104807;1274;60706;-70
2022/05/18 09:58:24;;;;;;;6.40;1.10;;;;;;;27.03;21.25;101189.07;104641;1273;73094;-68
2022/05/18 10:07:44;;;;;;;5.80;1.00;;;;;;;26.25;21.90;101187.38;104675;1273;59733;-67
2022/05/18 10:10:36;;;;;;;10.50;2.40;;;;;;;26.19;22.31;101189.21;104619;1273;59397;-67
2022/05/18 10:13:31;;;;;;;7.80;1.20;;;;;;;26.39;22.12;101185.31;104697;1273;73948;-67
2022/05/18 10:16:38;;;;;;;12.10;1.70;;;;;;;26.43;22.25;101185.09;104929;1273;69445;-69
2022/05/18 10:19:45;;;;;;;7.10;0.90;;;;;;;26.68;22.50;101178.98;104757;1273;72610;-68
2022/05/18 10:22:40;;;;;;;6.90;1.20;;;;;;;26.61;21.85;101182.67;104755;1273;59645;-66
2022/05/18 10:25:35;;;;;;;12.30;3.20;;;;;;;26.56;22.17;101183.27;104801;1273;61918;-65
2022/05/18 10:28:30;;;;;;;8.30;1.50;;;;;;;26.70;22.35;101175.88;104694;1273;72860;-69
2022/05/18 10:31:38;;;;;;;6.90;1.10;;;;;;;26.91;22.16;101179.34;104622;1273;67476;-68
2022/05/18 10:34:31;;;;;;;7.50;1.70;;;;;;;27.47;21.65;101172.25;104606;1273;73449;-69
2022/05/18 10:37:35;;;;;;;7.80;1.80;;;;;;;27.78;21.40;101167.76;104921;1274;59356;-67
2022/05/18 10:40:23;;;;;;;10.80;1.40;;;;;;;28.06;21.07;101158.42;104595;1273;59562;-67
2022/05/18 10:43:35;;;;;;;8.20;1.80;;;;;;;28.30;20.65;101155.81;104818;1273;73409;-63
2022/05/18 10:46:43;;;;;;;7.00;1.40;;;;;;;28.47;20.42;101155.09;104657;1273;68480;-68
2022/05/18 10:49:36;;;;;;;6.80;1.20;;;;;;;28.77;20.10;101146.24;104700;1273;73502;-69
2022/05/18 10:52:33;;;;;;;9.00;1.20;;;;;;;29.03;19.98;101144.85;104681;1274;59747;-71
2022/05/18 10:55:24;;;;;;;8.10;1.30;;;;;;;29.17;19.79;101143.66;104867;1274;59323;-67
2022/05/18 10:58:27;;;;;;;6.20;1.10;;;;;;;29.19;19.84;101138.98;104713;1273;72027;-68
2022/05/18 11:01:28;;;;;;;6.00;1.20;;;;;;;29.12;19.87;101141.41;104706;1274;69607;-67
2022/05/18 11:04:26;;;;;;;6.20;1.20;;;;;;;28.91;20.21;101134.15;104699;1274;73385;-67
2022/05/18 11:07:14;;;;;;;10.20;1.30;;;;;;;28.98;20.13;101132.81;104679;1274;59406;-67
2022/05/18 11:10:08;;;;;;;9.40;1.40;;;;;;;28.86;19.95;101130.95;104669;1274;59662;-66
2022/05/18 11:13:09;;;;;;;11.60;1.40;;;;;;;28.15;20.57;101128.52;104474;1274;74068;-66
2022/05/18 11:16:12;;;;;;;5.90;1.10;;;;;;;27.37;21.71;101130.45;104840;1275;68590;-68
2022/05/18 11:19:37;;;;;;;8.30;1.40;;;;;;;26.62;22.92;101122.69;104698;1275;72584;-67
2022/05/18 11:22:30;;;;;;;7.00;1.20;;;;;;;26.03;23.39;101121.79;104742;1274;59406;-68
2022/05/18 11:26:06;;;;;;;6.20;1.20;;;;;;;25.49;24.28;101118.54;104670;1274;59512;-66
2022/05/18 11:29:52;;;;;;;6.10;1.20;;;;;;;24.79;25.13;101113.60;104781;1274;71584;-67
2022/05/18 11:33:12;;;;;;;13.00;4.70;;;;;;;24.22;26.46;101112.22;104664;1274;67416;-66
2022/05/18 11:36:14;;;;;;;9.20;1.30;;;;;;;23.45;27.12;101109.42;104816;1275;73419;-67
2022/05/18 11:39:12;;;;;;;8.60;1.20;;;;;;;22.80;28.41;101110.43;104637;1274;59440;-68
2022/05/18 11:43:00;;;;;;;8.00;1.20;;;;;;;22.27;29.28;101111.66;104740;1274;59513;-67
2022/05/18 11:46:29;;;;;;;16.80;1.80;;;;;;;21.33;30.65;101107.91;105412;1274;72420;-64
2022/05/18 11:49:38;;;;;;;7.30;1.60;;;;;;;20.59;32.11;101104.27;104842;1274;67933;-66
2022/05/18 11:52:54;;;;;;;11.70;1.60;;;;;;;19.90;33.27;101102.52;104870;1273;73279;-66
2022/05/18 11:56:21;;;;;;;7.90;1.30;;;;;;;19.39;34.62;101095.47;105076;1274;59339;-65
2022/05/18 11:59:44;;;;;;;6.20;1.30;;;;;;;18.99;35.77;101098.09;105001;1274;61013;-66
2022/05/18 12:02:57;;;;;;;6.90;1.40;;;;;;;18.56;36.65;101103.65;104717;1274;73243;-66
2022/05/18 12:06:09;;;;;;;10.40;1.70;;;;;;;18.28;37.58;101103.10;105020;1274;69461;-68
2022/05/18 12:09:30;;;;;;;7.20;1.10;;;;;;;18.01;37.84;101104.14;104826;1274;73439;-68
2022/05/18 12:12:29;;;;;;;5.90;1.30;;;;;;;17.77;38.46;101098.16;104649;1274;59389;-67
2022/05/18 12:15:40;;;;;;;6.20;1.30;;;;;;;17.56;39.16;101101.04;105050;1274;60500;-68
2022/05/18 12:18:49;;;;;;;7.80;1.30;;;;;;;17.39;39.89;101101.09;104942;1274;73178;-68
2022/05/18 12:21:48;;;;;;;6.90;1.40;;;;;;;17.09;40.21;101097.90;104847;1274;67352;-67
2022/05/18 12:24:38;;;;;;;7.10;1.60;;;;;;;16.81;41.09;101103.34;105073;1274;72422;-67
2022/05/18 12:27:27;;;;;;;7.80;1.50;;;;;;;16.64;41.20;101102.84;104737;1274;59400;-69
2022/05/18 12:30:20;;;;;;;8.80;1.40;;;;;;;16.57;42.21;101100.05;104486;1277;62056;-68
2022/05/18 12:33:13;;;;;;;6.20;1.30;;;;;;;16.53;42.06;101101.27;104637;1275;72837;-70
2022/05/18 12:36:16;;;;;;;5.40;1.40;;;;;;;16.40;42.71;101093.23;105083;1274;68704;-68
2022/05/18 12:39:14;;;;;;;6.50;1.30;;;;;;;16.34;42.84;101093.73;104903;1274;72897;-66
2022/05/18 12:42:03;;;;;;;7.90;1.30;;;;;;;16.19;42.85;101094.02;104705;1275;59368;-66
2022/05/18 12:45:03;;;;;;;8.60;1.40;;;;;;;16.05;43.59;101094.24;104824;1274;60063;-66
2022/05/18 12:48:09;;;;;;;6.40;1.20;;;;;;;16.00;43.96;101090.05;104662;1273;72377;-68
2022/05/18 12:51:27;;;;;;;6.10;1.40;;;;;;;16.04;44.24;101094.94;104969;1274;68605;-68
2022/05/18 12:54:30;;;;;;;8.60;1.50;;;;;;;15.94;44.32;101093.89;105084;1274;73557;-67
2022/05/18 12:57:26;;;;;;;5.40;1.40;;;;;;;15.94;44.71;101089.06;104942;1274;59383;-67
2022/05/18 13:00:23;;;;;;;8.60;1.40;;;;;;;15.98;44.74;101091.44;104906;1275;60517;-66
2022/05/18 13:03:11;;;;;;;8.40;1.30;;;;;;;16.05;44.81;101089.80;105065;1274;73142;-68
2022/05/18 13:05:59;;;;;;;11.00;1.50;;;;;;;16.01;44.76;101086.02;104678;1274;68796;-68
2022/05/18 13:09:02;;;;;;;5.70;1.20;;;;;;;15.88;44.79;101085.70;104629;1273;73957;-69
2022/05/18 13:12:17;;;;;;;6.60;1.40;;;;;;;15.78;45.11;101082.73;104846;1274;59388;-67
2022/05/18 13:15:20;;;;;;;8.20;1.40;;;;;;;15.66;45.31;101080.30;104952;1273;61153;-67
2022/05/18 13:18:19;;;;;;;6.30;1.00;;;;;;;15.59;45.27;101074.27;104762;1274;73335;-67
2022/05/18 13:21:07;;;;;;;6.40;1.20;;;;;;;15.51;45.85;101064.92;104656;1274;69415;-68
2022/05/18 13:24:12;;;;;;;7.20;1.20;;;;;;;15.51;46.15;101062.04;105074;1273;72817;-66
2022/05/18 13:27:11;;;;;;;11.10;1.30;;;;;;;15.52;46.03;101057.86;104601;1273;59231;-66
2022/05/18 13:30:03;;;;;;;7.10;1.30;;;;;;;15.47;45.93;101053.37;104500;1273;61879;-67
2022/05/18 13:32:51;;;;;;;5.60;1.10;;;;;;;15.47;46.49;101051.27;104854;1274;73666;-70
2022/05/18 13:35:40;;;;;;;6.30;1.40;;;;;;;15.49;46.25;101049.33;104735;1273;69016;-68
2022/05/18 13:38:28;;;;;;;6.20;1.30;;;;;;;15.51;46.47;101047.04;104670;1274;73459;-67
2022/05/18 13:41:19;;;;;;;10.80;1.30;;;;;;;15.46;46.47;101046.33;104676;1273;59672;-68
2022/05/18 13:44:09;;;;;;;11.30;1.60;;;;;;;15.42;46.77;101043.30;104993;1273;59489;-67
2022/05/18 13:46:58;;;;;;;7.70;1.30;;;;;;;15.41;46.85;101043.40;104688;1273;74074;-69
2022/05/18 13:49:46;;;;;;;9.30;1.70;;;;;;;15.44;46.87;101044.92;104719;1273;66709;-65